Flight Track Log - Related Links

Times and Time Zones

All times are in EDT time to prevent confusion due to time zone crossing. See the APC55 flight status page for this flight to view local times or setup timezone preferences in your user account.

Time Position Orientation Groundspeed Altitude Reporting Facility
EDT Latitude Longitude Course Direction KTS MPH feet Rate Location/Type
Fri 12:02:12 AM 47.6075 -117.7617 276° West 115 132 6,500  Level Seattle Center
Fri 12:03:00 AM 47.5111 -117.8284 260° West  Level FlightAware Approximate
Fri 12:03:13 AM 47.6061 -117.8103 268° West 118 136 7,100  Level Seattle Center
Fri 12:04:00 AM 47.5309 -117.8777 301° West  Level FlightAware Approximate
Fri 12:04:14 AM 47.6075 -117.8608 272° West 123 142 7,700  Level Seattle Center
Fri 12:05:00 AM 47.5508 -117.9271 301° West  Level FlightAware Approximate
Fri 12:05:15 AM 47.6075 -117.9139 270° West 128 147 8,300  Level Seattle Center
Fri 12:06:00 AM 47.5516 -117.9846 270° West  Level Estimated
Fri 12:06:16 AM 47.6075 -117.9797 270° West 133 153 8,900  Level Seattle Center
Fri 12:07:00 AM 47.5554 -118.0418 276° West  Level FlightAware Approximate
Fri 12:07:17 AM 47.6078 -118.0333 270° West 131 151 9,500  Level Seattle Center
Fri 12:08:17 AM 47.6089 -118.0875 272° West 131 151 10,100 492 Climbing Seattle Center
Fri 12:09:19 AM 47.6083 -118.1428 269° West 134 154 10,500 244 Climbing Seattle Center
Fri 12:10:20 AM 47.6092 -118.2017 271° West 143 165 10,600 50 Climbing Seattle Center
Fri 12:11:20 AM 47.6086 -118.2636 269° West 151 174 10,600  Level Seattle Center
Fri 12:12:22 AM 47.6078 -118.3286 269° West 157 181 10,600  Level Seattle Center
Fri 12:13:23 AM 47.6075 -118.3953 270° West 161 185 10,600  Level Seattle Center
Fri 12:14:23 AM 47.6072 -118.4608 270° West 159 183 10,600  Level Seattle Center
Fri 12:15:24 AM 47.6064 -118.5258 269° West 160 184 10,600  Level Seattle Center
Fri 12:16:25 AM 47.6064 -118.5903 270° West 158 182 10,600  Level Seattle Center
Fri 12:17:26 AM 47.6064 -118.6558 270° West 157 181 10,600  Level Seattle Center
Fri 12:18:27 AM 47.6078 -118.7197 272° West 155 178 10,600  Level Seattle Center
Fri 12:19:28 AM 47.6083 -118.7958 271° West 156 180 10,600  Level Seattle Center
Fri 12:20:29 AM 47.6081 -118.8631 270° West 164 189 10,600  Level Seattle Center
Fri 12:21:30 AM 47.6072 -118.9275 269° West 158 182 10,600  Level Seattle Center
Fri 12:22:30 AM 47.6061 -118.9942 269° West 161 185 10,600  Level Seattle Center
Fri 12:23:31 AM 47.6069 -119.0603 271° West 162 186 10,600  Level Seattle Center
Fri 12:24:32 AM 47.6067 -119.1267 270° West 161 185 10,600  Level Seattle Center
Fri 12:25:33 AM 47.6050 -119.1925 268° West 162 186 10,600  Level Seattle Center
Fri 12:26:34 AM 47.6036 -119.2586 268° West 161 185 10,600  Level Seattle Center
Fri 12:27:35 AM 47.6039 -119.3242 270° West 161 185 10,600  Level Seattle Center
Fri 12:28:36 AM 47.6019 -119.3889 267° West 159 183 10,600  Level Seattle Center
Fri 12:29:37 AM 47.6003 -119.4536 268° West 159 183 10,600  Level Seattle Center
Fri 12:30:38 AM 47.6000 -119.5181 270° West 158 182 10,600  Level Seattle Center
Fri 12:31:39 AM 47.5997 -119.5800 270° West 152 175 10,600  Level Seattle Center
Fri 12:32:39 AM 47.5994 -119.6531 270° West 149 171 10,600  Level Seattle Center
Fri 12:33:40 AM 47.5981 -119.7147 268° West 150 173 10,600  Level Seattle Center
Fri 12:34:41 AM 47.5967 -119.7761 268° West 151 174 10,600  Level Seattle Center
Fri 12:35:42 AM 47.5967 -119.8381 270° West 150 173 10,600  Level Seattle Center
Fri 12:36:43 AM 47.5961 -119.8967 269° West 147 169 10,600  Level Seattle Center
Fri 12:37:44 AM 47.5939 -119.9550 267° West 142 163 10,600  Level Seattle Center
Fri 12:38:45 AM 47.5942 -120.0150 270° West 146 168 10,600  Level Seattle Center
Fri 12:39:45 AM 47.5928 -120.0753 268° West 147 169 10,600  Level Seattle Center
Fri 12:40:46 AM 47.5894 -120.1369 265° West 151 174 10,600  Level Seattle Center
Fri 12:41:47 AM 47.5864 -120.1950 266° West 142 163 10,600  Level Seattle Center
Fri 12:42:48 AM 47.5833 -120.2558 266° West 149 171 10,600  Level Seattle Center
Fri 12:43:49 AM 47.5828 -120.3147 269° West 145 167 10,600  Level Seattle Center
Fri 12:44:50 AM 47.5806 -120.3733 267° West 146 168 10,600  Level Seattle Center
Fri 12:45:50 AM 47.5797 -120.4361 269° West 153 176 10,600  Level Seattle Center
Fri 12:46:51 AM 47.5792 -120.5106 269° West 152 175 10,600  Level Seattle Center
Fri 12:47:52 AM 47.5783 -120.5697 269° West 147 169 10,600  Level Seattle Center
Fri 12:48:53 AM 47.5781 -120.6311 270° West 148 170 10,600  Level Seattle Center
Fri 12:49:54 AM 47.5783 -120.6897 270° West 146 168 10,600  Level Seattle Center
Fri 12:50:55 AM 47.5783 -120.7511 270° West 147 169 10,600  Level Seattle Center
Fri 12:51:56 AM 47.5764 -120.8094 267° West 144 166 10,600 49 Level Seattle Center
Fri 12:52:57 AM 47.5750 -120.8706 268° West 147 169 10,700 49 Climbing Seattle Center
Fri 12:53:58 AM 47.5733 -120.9303 268° West 147 169 10,700  Level Seattle Center
Fri 12:54:58 AM 47.5714 -120.9900 267° West 146 168 10,700  Level Seattle Center
Fri 12:55:59 AM 47.5689 -121.0506 267° West 148 170 10,700  Level Seattle Center
Fri 12:56:50 AM 47.5669 -121.1075 267° West 147 169 10,700  Level Seattle Center
Fri 12:57:39 AM 47.5619 -121.1567 261° West 143 165 10,700 -85 Level Seattle Center
Fri 12:58:01 AM 47.5617 -121.1667 268° West 142 163 10,600 -218 Descending Seattle Center
Fri 12:58:34 AM 47.5606 -121.2103 268° West 146 168 10,500 -98 Descending Seattle Center
Fri 12:59:02 AM 47.5592 -121.2389 266° West 146 168 10,500  Level Seattle Center
Fri 12:59:41 AM 47.5575 -121.2747 266° West 147 169 10,500  Level Seattle Center
Fri 01:00:02 AM 47.5578 -121.2981 271° West 144 166 10,500  Level Seattle Center
Fri 01:00:41 AM 47.5561 -121.3381 266° West 141 162 10,500 -197 Level Seattle Center
Fri 01:01:03 AM 47.5561 -121.3575 270° West 144 166 10,300 -492 Descending Seattle Center
Fri 01:01:42 AM 47.5550 -121.4017 268° West 153 176 10,000 -590 Descending Seattle Center
Fri 01:02:04 AM 47.5536 -121.4275 265° West 158 182 9,700 -590 Descending Seattle Center
Fri 01:02:43 AM 47.5525 -121.4689 268° West 167 192 9,400 -590 Descending Seattle Center
Fri 01:03:05 AM 47.5517 -121.4958 267° West 165 190 9,100 -655 Descending Seattle Center
Fri 01:03:38 AM 47.5511 -121.5322 269° West 166 191 8,800 -700 Descending Seattle Center
Fri 01:04:05 AM 47.5494 -121.5622 265° West 163 188 8,400 -778 Descending Seattle Center
Fri 01:04:32 AM 47.5492 -121.5928 269° West 162 186 8,100 -689 Descending Seattle Center
Fri 01:05:06 AM 47.5464 -121.6283 263° West 162 186 7,700 -764 Descending Seattle Center
Fri 01:05:27 AM 47.5464 -121.6503 270° West 162 186 7,400 -689 Descending Seattle Center
Fri 01:06:07 AM 47.5450 -121.6953 267° West 162 186 7,000 -537 Descending Seattle Center
Fri 01:06:34 AM 47.5414 -121.7256 260° West 163 188 6,800 -590 Descending Seattle Center
Fri 01:07:08 AM 47.5375 -121.7617 261° West 164 189 6,400 -655 Descending Seattle Center
Fri 01:07:29 AM 47.5325 -121.7867 254° West 165 190 6,200 -600 Descending Seattle Center
Fri 01:08:08 AM 47.5264 -121.8289 258° West 168 193 5,800 -636 Descending Seattle Center
Fri 01:08:35 AM 47.5200 -121.8594 253° West 170 196 5,500 -787 Descending Seattle Center
Fri 01:09:09 AM 47.5128 -121.8997 255° West 166 191 5,000 -776 Descending Seattle Center
Fri 01:10:00 AM 47.5006 -121.9558 252° West 164 189 4,400 -702 Descending Seattle Center
Fri 01:10:43 AM 47.4911 -121.9972 251° West 164 189 3,900 -686 Descending Seattle Center
Fri 01:11:10 AM 47.4836 -122.0278 250° West 164 189 3,600 -667 Descending Seattle Center
Fri 01:11:37 AM 47.4775 -122.0575 253° West 164 189 3,300 -689 Descending Seattle Center
Fri 01:12:11 AM 47.4683 -122.0906 248° West 163 188 2,900 -776 Descending Seattle Center
Fri 01:13:02 AM 47.4567 -122.1411 251° West 158 182 2,200 -623 Descending Seattle Center
Fri 01:13:57 AM 47.4461 -122.1961 254° West 150 173 1,800 -338 Descending Seattle Center
Fri 01:14:13 AM 47.4464 -122.2100 272° West 146 168 1,800 -333 Level Seattle Center
Fri 01:14:51 AM 47.4572 -122.2392 299° West 115 132 1,500 -500 Descending Seattle Center
Fri 01:15:13 AM 47.4661 -122.2508 318° Northwest 117 135 1,300 -545 Descending Seattle Center
Fri 01:15:46 AM 47.4808 -122.2622 332° Northwest 115 132 1,000 -689 Descending Seattle Center
Fri 01:16:14 AM 47.4944 -122.2736 331° Northwest 116 133 600 -627 Descending Seattle Center
Fri 01:16:53 AM 47.5083 -122.2831 335° Northwest 114 131 300 -492 Descending Seattle Center
Fri 01:17:15 AM 47.5167 -122.2914 326° Northwest 112 129 100 -145 Descending Seattle Center
Fri 01:18:16 AM 47.5417 -122.3117 331° Northwest 110 127 100  Level Seattle Center

Login

Don't have an account? Register now (free) for customized features, flight alerts, and more!